Open Full Screen Window  High Contrast Mode
Wind Gusting 00 knots
07
September 25, 2018 10:39 AM EDT
Present Weather: Mist
Weather Information
Wind Direction
  170 °
Wind Speed
  07 kt (8 mph)
Wind Gust
  00 kt (0 mph)
Altimeter
30.07 in
Visibility
5 SM
Temperature
20° C
68° F
Dewpoint
20° C
68° F
Humidity
100%
1hr Rain Fall
00.00 in.
24hr Rain Fall
01.10 in.
Sky Condition
Overcast @ 800 ft
IFR

METAR KDLZ 251439Z AUTO 17007KT 5SM BR OVC008 20/20 A3007 RMK AO2 LTG DSNT NE AND NW

FAA Disclaimer: The data displayed is for advisory purposes only and is not to be used for flight planning or operations.